Time;durP1;ratioP1;P1;durP2;ratioP2;P2;SDS_P1;SDS_P2;PMS_P1;PMS_P2;Temp;Humidity;BMP_temperature;BMP_pressure;BME280_temperature;BME280_humidity;BME280_pressure;Samples;Min_cycle;Max_cycle;Signal;HPM_P1;HPM_P2
2023/04/06 00:01:38;;;;;;;9.60;6.38;;;2.50;64.20;;;;;;4956755;28;20046;-63
2023/04/06 00:04:04;;;;;;;9.52;6.40;;;2.60;64.60;;;;;;4958859;28;20031;-62
2023/04/06 00:06:31;;;;;;;8.50;6.38;;;2.50;64.40;;;;;;4954356;28;20495;-62
2023/04/06 00:08:58;;;;;;;8.02;6.18;;;2.50;64.50;;;;;;4954571;28;20586;-63
2023/04/06 00:11:23;;;;;;;9.55;6.22;;;2.50;64.60;;;;;;4957433;28;20065;-63
2023/04/06 00:13:49;;;;;;;9.32;5.75;;;2.50;64.60;;;;;;4955054;28;20443;-63
2023/04/06 00:16:15;;;;;;;8.95;6.72;;;2.60;64.60;;;;;;4955581;28;20073;-62
2023/04/06 00:18:41;;;;;;;11.27;6.72;;;2.60;64.70;;;;;;4955089;28;20042;-63
2023/04/06 00:21:06;;;;;;;9.00;6.47;;;2.60;64.60;;;;;;4955146;28;20045;-62
2023/04/06 00:23:32;;;;;;;9.02;6.55;;;2.60;64.70;;;;;;4955610;28;20034;-63
2023/04/06 00:25:57;;;;;;;11.50;6.85;;;2.50;64.70;;;;;;4954058;28;20070;-62
2023/04/06 00:28:28;;;;;;;13.63;6.68;;;2.50;64.70;;;;;;4953954;28;20038;-63
2023/04/06 00:30:55;;;;;;;10.40;6.93;;;2.50;64.80;;;;;;4954539;28;20050;-63
2023/04/06 00:33:21;;;;;;;8.98;6.40;;;2.50;64.80;;;;;;4957101;28;20035;-63
2023/04/06 00:35:46;;;;;;;10.18;6.50;;;2.40;64.80;;;;;;4955112;28;20086;-62
2023/04/06 00:38:12;;;;;;;11.68;6.50;;;2.40;65.10;;;;;;4955011;28;20499;-63
2023/04/06 00:40:39;;;;;;;8.82;6.50;;;2.30;64.90;;;;;;4955564;28;20521;-63
2023/04/06 00:43:05;;;;;;;11.88;7.25;;;2.30;65.10;;;;;;4955512;28;20141;-63
2023/04/06 00:45:32;;;;;;;10.18;6.72;;;2.30;65.20;;;;;;4953993;28;20051;-62
2023/04/06 00:47:57;;;;;;;10.25;6.97;;;2.20;65.10;;;;;;4958012;28;20419;-62
2023/04/06 00:50:23;;;;;;;7.75;6.20;;;2.20;65.30;;;;;;4959595;28;20038;-63
2023/04/06 00:52:49;;;;;;;13.30;7.65;;;2.20;65.40;;;;;;4958932;28;20174;-62
2023/04/06 00:55:15;;;;;;;8.65;6.70;;;2.20;65.50;;;;;;4955044;28;20046;-62
2023/04/06 00:57:40;;;;;;;10.55;6.90;;;2.10;65.40;;;;;;4953605;28;20070;-63
2023/04/06 01:00:07;;;;;;;9.18;6.40;;;2.10;65.40;;;;;;4954979;28;20062;-62
2023/04/06 01:02:32;;;;;;;13.18;6.95;;;2.10;65.50;;;;;;4962169;28;20035;-62
2023/04/06 01:04:58;;;;;;;9.13;6.72;;;2.00;65.40;;;;;;4954776;28;20086;-63
2023/04/06 01:07:24;;;;;;;9.38;6.63;;;2.00;65.50;;;;;;4955295;28;20027;-63
2023/04/06 01:09:50;;;;;;;10.75;7.05;;;2.00;65.60;;;;;;4931938;28;20546;-63
2023/04/06 01:12:16;;;;;;;9.85;6.82;;;2.00;65.60;;;;;;4953497;28;20043;-63
2023/04/06 01:14:41;;;;;;;11.63;7.38;;;1.90;65.60;;;;;;4953607;28;20054;-62
2023/04/06 01:17:07;;;;;;;10.57;7.20;;;1.90;65.80;;;;;;4958061;28;20335;-63
2023/04/06 01:19:33;;;;;;;9.88;7.10;;;1.90;65.80;;;;;;4957521;28;20074;-63
2023/04/06 01:21:59;;;;;;;10.25;7.32;;;1.90;65.80;;;;;;4959412;28;20131;-63
2023/04/06 01:24:24;;;;;;;11.10;7.45;;;1.90;66.00;;;;;;4958211;28;20483;-63
2023/04/06 01:26:50;;;;;;;10.40;7.10;;;1.80;66.00;;;;;;4957964;28;20077;-63
2023/04/06 01:29:15;;;;;;;11.93;7.43;;;1.80;66.10;;;;;;4958933;28;20593;-63
2023/04/06 01:31:41;;;;;;;13.30;7.25;;;1.80;66.20;;;;;;4955079;28;20042;-63
2023/04/06 01:34:07;;;;;;;10.65;7.18;;;1.80;66.30;;;;;;4956606;28;20066;-63
2023/04/06 01:36:32;;;;;;;9.77;7.50;;;1.70;66.30;;;;;;4952754;28;20066;-63
2023/04/06 01:38:58;;;;;;;13.60;7.35;;;1.70;66.50;;;;;;4955026;28;20053;-62
2023/04/06 01:41:24;;;;;;;13.32;7.50;;;1.60;66.30;;;;;;4953562;28;20525;-63
2023/04/06 01:43:54;;;;;;;12.57;7.53;;;1.60;66.30;;;;;;4953912;28;20057;-63
2023/04/06 01:46:20;;;;;;;10.80;7.53;;;1.60;66.30;;;;;;4954343;28;20027;-63
2023/04/06 01:48:45;;;;;;;11.07;7.22;;;1.60;66.60;;;;;;4953860;28;20447;-63
2023/04/06 01:51:11;;;;;;;12.32;7.55;;;1.60;66.60;;;;;;4953305;28;20035;-63
2023/04/06 01:53:36;;;;;;;12.80;6.93;;;1.50;66.50;;;;;;4953883;28;20089;-63
2023/04/06 01:56:02;;;;;;;10.82;7.60;;;1.50;66.60;;;;;;4954179;28;20034;-63
2023/04/06 01:58:28;;;;;;;11.85;7.40;;;1.60;66.60;;;;;;4953160;28;20515;-63
2023/04/06 02:00:54;;;;;;;11.98;7.78;;;1.50;66.70;;;;;;4953934;28;20049;-63
2023/04/06 02:03:19;;;;;;;11.93;7.07;;;1.50;66.60;;;;;;4956837;28;20038;-63
2023/04/06 02:05:45;;;;;;;12.85;7.63;;;1.50;66.60;;;;;;4954568;28;20031;-63
2023/04/06 02:08:11;;;;;;;11.85;8.02;;;1.50;66.80;;;;;;4952255;28;20543;-63
2023/04/06 02:10:36;;;;;;;12.10;7.82;;;1.50;66.80;;;;;;4954172;28;20031;-63
2023/04/06 02:13:02;;;;;;;11.88;7.63;;;1.40;66.70;;;;;;4953523;28;20110;-63
2023/04/06 02:15:28;;;;;;;11.73;7.50;;;1.40;66.80;;;;;;4952916;28;20035;-63
2023/04/06 02:17:53;;;;;;;11.50;7.70;;;1.40;66.90;;;;;;4953743;28;20047;-63
2023/04/06 02:20:19;;;;;;;12.52;7.80;;;1.50;67.00;;;;;;4955379;28;20450;-63
2023/04/06 02:22:45;;;;;;;10.73;7.32;;;1.40;66.80;;;;;;4953297;28;20455;-62
2023/04/06 02:25:11;;;;;;;12.25;8.43;;;1.40;66.90;;;;;;4954147;28;20038;-63
2023/04/06 02:27:37;;;;;;;12.13;7.95;;;1.40;66.80;;;;;;4953040;28;20038;-63
2023/04/06 02:30:03;;;;;;;11.07;7.85;;;1.30;66.80;;;;;;4954494;28;20046;-63
2023/04/06 02:32:29;;;;;;;13.35;8.02;;;1.30;66.80;;;;;;4951592;28;20130;-63
2023/04/06 02:34:55;;;;;;;14.57;7.80;;;1.30;66.80;;;;;;4954211;28;20118;-63
2023/04/06 02:37:21;;;;;;;10.88;7.47;;;1.20;66.90;;;;;;4954370;28;20043;-63
2023/04/06 02:39:47;;;;;;;12.68;8.13;;;1.20;67.20;;;;;;4953404;28;20531;-62
2023/04/06 02:42:14;;;;;;;10.75;7.85;;;1.20;67.40;;;;;;4954467;28;20035;-63
2023/04/06 02:44:41;;;;;;;16.67;8.77;;;1.10;67.20;;;;;;4952669;28;20035;-63
2023/04/06 02:47:06;;;;;;;12.95;8.45;;;1.10;67.20;;;;;;4953378;28;20054;-61
2023/04/06 02:49:32;;;;;;;14.90;8.90;;;1.10;67.20;;;;;;4954956;28;20491;-63
2023/04/06 02:51:58;;;;;;;12.50;8.70;;;1.00;67.30;;;;;;4955077;28;20046;-63
2023/04/06 02:54:23;;;;;;;12.75;7.60;;;1.00;67.30;;;;;;4951675;28;20038;-60
2023/04/06 02:56:49;;;;;;;13.95;8.48;;;1.00;67.50;;;;;;4952099;28;20333;-63
2023/04/06 02:59:14;;;;;;;12.70;8.35;;;1.00;67.50;;;;;;4953509;28;21867;-62
2023/04/06 03:01:40;;;;;;;12.75;7.93;;;1.00;67.50;;;;;;4953820;28;20034;-63
2023/04/06 03:04:06;;;;;;;13.88;8.05;;;0.90;67.40;;;;;;4953121;28;20085;-60
2023/04/06 03:06:31;;;;;;;12.80;8.57;;;0.90;67.50;;;;;;4953218;28;20066;-63
2023/04/06 03:08:57;;;;;;;13.45;8.07;;;1.00;67.70;;;;;;4953972;28;20045;-62
2023/04/06 03:11:22;;;;;;;12.35;8.38;;;1.00;67.70;;;;;;4958852;28;20066;-63
2023/04/06 03:13:48;;;;;;;11.93;7.82;;;1.00;67.90;;;;;;4955849;28;20462;-63
2023/04/06 03:16:14;;;;;;;12.70;8.15;;;1.00;67.80;;;;;;4955015;28;20043;-63
2023/04/06 03:18:39;;;;;;;11.98;8.50;;;1.00;67.80;;;;;;4955710;28;20126;-63
2023/04/06 03:21:05;;;;;;;12.95;8.52;;;1.00;67.80;;;;;;4958120;28;20558;-63
2023/04/06 03:23:31;;;;;;;15.23;9.23;;;0.90;67.70;;;;;;4958413;28;20035;-62
2023/04/06 03:25:56;;;;;;;14.55;9.18;;;0.90;67.50;;;;;;4956434;28;20030;-63
2023/04/06 03:28:22;;;;;;;12.85;8.73;;;0.90;67.80;;;;;;4956023;28;20551;-62
2023/04/06 03:30:48;;;;;;;13.73;9.15;;;0.90;67.90;;;;;;4955283;28;20538;-63
2023/04/06 03:33:14;;;;;;;16.60;9.25;;;1.00;67.90;;;;;;4955462;28;20114;-63
2023/04/06 03:35:39;;;;;;;15.48;10.18;;;1.00;67.90;;;;;;4953092;28;20035;-63
2023/04/06 03:38:05;;;;;;;19.58;10.43;;;1.00;67.80;;;;;;4957895;28;20422;-63
2023/04/06 03:40:31;;;;;;;13.57;9.07;;;1.00;67.90;;;;;;4956410;28;20122;-63
2023/04/06 03:42:57;;;;;;;13.65;8.93;;;0.80;67.90;;;;;;4955906;28;20066;-63
2023/04/06 03:45:22;;;;;;;12.63;9.27;;;1.00;68.00;;;;;;4955317;28;20039;-62
2023/04/06 03:47:48;;;;;;;16.80;9.60;;;1.00;68.00;;;;;;4957728;28;20062;-63
2023/04/06 03:50:14;;;;;;;16.23;9.65;;;1.00;68.00;;;;;;4957263;28;20152;-63
2023/04/06 03:52:40;;;;;;;16.63;10.15;;;1.00;68.10;;;;;;4954877;28;20035;-63
2023/04/06 03:55:06;;;;;;;17.13;10.23;;;1.00;67.90;;;;;;4956852;28;20808;-63
2023/04/06 03:57:32;;;;;;;15.55;10.30;;;1.00;68.00;;;;;;4955962;28;20041;-63
2023/04/06 03:59:58;;;;;;;19.00;10.60;;;1.00;68.00;;;;;;4955452;28;20043;-63
2023/04/06 04:02:23;;;;;;;16.38;10.27;;;1.00;68.00;;;;;;4955324;28;20495;-63
2023/04/06 04:04:49;;;;;;;14.88;10.65;;;1.00;67.90;;;;;;4955689;28;20569;-63
2023/04/06 04:07:15;;;;;;;14.82;10.43;;;1.00;68.00;;;;;;4953485;28;20043;-63
2023/04/06 04:09:40;;;;;;;17.13;11.00;;;1.00;68.10;;;;;;4956466;28;20066;-63
2023/04/06 04:12:06;;;;;;;16.48;10.35;;;0.90;68.20;;;;;;4954096;28;20027;-63
2023/04/06 04:14:32;;;;;;;15.18;9.82;;;0.90;68.20;;;;;;4955883;28;20035;-61
2023/04/06 04:16:57;;;;;;;14.68;10.15;;;0.90;68.20;;;;;;4955383;28;20050;-62
2023/04/06 04:19:23;;;;;;;15.25;10.35;;;0.90;68.20;;;;;;4953634;28;20047;-62
2023/04/06 04:21:49;;;;;;;17.40;11.32;;;0.90;68.20;;;;;;4955133;28;20576;-63
2023/04/06 04:24:14;;;;;;;15.27;9.98;;;0.90;68.20;;;;;;4956110;28;20038;-63
2023/04/06 04:26:40;;;;;;;15.65;10.15;;;0.90;68.40;;;;;;4951804;28;20039;-62
2023/04/06 04:29:06;;;;;;;16.45;10.68;;;0.90;68.30;;;;;;4957012;28;20566;-61
2023/04/06 04:31:32;;;;;;;20.00;12.30;;;0.90;68.20;;;;;;4956363;28;20418;-61
2023/04/06 04:33:59;;;;;;;22.27;12.43;;;0.90;68.30;;;;;;4959252;28;20038;-61
2023/04/06 04:36:25;;;;;;;23.50;11.68;;;0.90;68.40;;;;;;4957993;28;20118;-62
2023/04/06 04:38:51;;;;;;;17.25;10.95;;;0.80;68.40;;;;;;4956148;28;20178;-62
2023/04/06 04:41:17;;;;;;;22.30;12.15;;;0.90;68.60;;;;;;4957947;28;20034;-62
2023/04/06 04:43:42;;;;;;;15.88;10.95;;;0.80;68.70;;;;;;4957264;28;20492;-60
2023/04/06 04:46:08;;;;;;;23.48;11.38;;;0.90;68.70;;;;;;4956997;28;20039;-62
2023/04/06 04:48:34;;;;;;;17.05;10.95;;;0.90;69.60;;;;;;4954697;28;20146;-61
2023/04/06 04:51:00;;;;;;;14.45;10.52;;;0.90;69.20;;;;;;4956781;28;20035;-62
2023/04/06 04:53:25;;;;;;;15.38;10.90;;;0.90;68.70;;;;;;4958962;28;20030;-65
2023/04/06 04:55:51;;;;;;;18.65;11.77;;;0.90;68.90;;;;;;4957286;28;20039;-62
2023/04/06 04:58:18;;;;;;;15.98;11.13;;;0.90;68.70;;;;;;4957018;28;20039;-64
2023/04/06 05:00:44;;;;;;;19.02;12.30;;;0.90;68.90;;;;;;4956765;28;20102;-65
2023/04/06 05:03:18;;;;;;;18.33;12.43;;;1.00;69.10;;;;;;4958491;28;20070;-65
2023/04/06 05:05:43;;;;;;;19.58;12.48;;;1.00;69.20;;;;;;4956074;28;20039;-63
2023/04/06 05:08:09;;;;;;;20.05;11.88;;;1.00;69.10;;;;;;4956693;28;20086;-64
2023/04/06 05:10:35;;;;;;;18.30;11.95;;;1.00;68.90;;;;;;4957142;28;20496;-65
2023/04/06 05:13:00;;;;;;;19.30;12.10;;;1.00;69.10;;;;;;4955004;28;20034;-64
2023/04/06 05:15:26;;;;;;;23.60;12.90;;;1.00;69.30;;;;;;4959026;28;20042;-62
2023/04/06 05:17:52;;;;;;;19.98;12.23;;;1.00;69.30;;;;;;4959140;28;20031;-64
2023/04/06 05:20:17;;;;;;;21.77;12.57;;;1.10;69.40;;;;;;4958730;28;20038;-62
2023/04/06 05:22:43;;;;;;;19.85;13.02;;;1.10;69.40;;;;;;4956586;28;22068;-64
2023/04/06 05:25:09;;;;;;;21.15;13.27;;;1.10;69.40;;;;;;4955678;28;20075;-64
2023/04/06 05:27:34;;;;;;;22.17;12.27;;;1.10;69.50;;;;;;4957569;28;20492;-63
2023/04/06 05:30:00;;;;;;;21.27;13.43;;;1.20;69.40;;;;;;4957458;28;20035;-64
2023/04/06 05:32:27;;;;;;;25.70;12.70;;;1.20;69.30;;;;;;4955415;28;20045;-64
2023/04/06 05:34:53;;;;;;;22.40;12.90;;;1.20;69.50;;;;;;4956259;28;20042;-64
2023/04/06 05:37:18;;;;;;;20.42;12.63;;;1.30;69.60;;;;;;4956758;28;20459;-63
2023/04/06 05:39:44;;;;;;;23.63;13.57;;;1.30;69.60;;;;;;4958094;28;20051;-63
2023/04/06 05:42:09;;;;;;;21.42;12.82;;;1.30;69.60;;;;;;4957502;28;20537;-64
2023/04/06 05:44:37;;;;;;;22.08;12.82;;;1.30;69.40;;;;;;4956743;28;20067;-64
2023/04/06 05:47:02;;;;;;;22.45;13.20;;;1.40;69.60;;;;;;4956042;28;20071;-63
2023/04/06 05:49:28;;;;;;;23.00;13.25;;;1.40;70.40;;;;;;4956344;28;20043;-62
2023/04/06 05:51:54;;;;;;;24.10;13.25;;;1.40;69.60;;;;;;4957488;28;20039;-64
2023/04/06 05:54:20;;;;;;;23.45;13.50;;;1.40;69.60;;;;;;4958746;28;20502;-64
2023/04/06 05:56:46;;;;;;;25.98;14.43;;;1.40;69.50;;;;;;4958415;28;20030;-63
2023/04/06 05:59:11;;;;;;;26.10;14.77;;;1.40;69.40;;;;;;4959393;28;20051;-63
2023/04/06 06:01:37;;;;;;;21.65;13.45;;;1.50;69.40;;;;;;4958886;28;20269;-63
2023/04/06 06:04:03;;;;;;;25.00;14.63;;;1.50;69.40;;;;;;4958536;28;20045;-64
2023/04/06 06:06:32;;;;;;;24.40;13.02;;;1.50;69.30;;;;;;4956597;28;20126;-62
2023/04/06 06:09:00;;;;;;;30.40;15.63;;;1.50;69.30;;;;;;4955554;28;20042;-63
2023/04/06 06:11:26;;;;;;;24.98;14.52;;;1.50;69.40;;;;;;4959497;28;20094;-63
2023/04/06 06:13:52;;;;;;;27.20;13.90;;;1.50;69.50;;;;;;4957555;28;20039;-63
2023/04/06 06:16:19;;;;;;;24.45;13.63;;;1.60;69.80;;;;;;4957290;28;20044;-64
2023/04/06 06:18:44;;;;;;;28.40;14.95;;;1.60;69.90;;;;;;4955254;28;20417;-63
2023/04/06 06:21:12;;;;;;;26.25;14.15;;;1.60;69.80;;;;;;4954664;28;20138;-64
2023/04/06 06:23:38;;;;;;;25.88;14.77;;;1.70;70.00;;;;;;4957575;28;20067;-63
2023/04/06 06:26:04;;;;;;;28.08;14.73;;;1.70;69.90;;;;;;4957259;28;20054;-63
2023/04/06 06:28:30;;;;;;;29.80;15.70;;;1.80;70.00;;;;;;4956170;28;20078;-63
2023/04/06 06:30:55;;;;;;;25.88;15.40;;;1.80;70.00;;;;;;4957590;28;20104;-63
2023/04/06 06:33:21;;;;;;;27.95;15.20;;;1.90;70.10;;;;;;4955612;28;20053;-62
2023/04/06 06:35:46;;;;;;;27.00;14.45;;;1.90;70.00;;;;;;4957182;28;20031;-63
2023/04/06 06:38:12;;;;;;;33.22;14.82;;;2.00;70.00;;;;;;4956163;28;20043;-63
2023/04/06 06:40:38;;;;;;;23.33;14.57;;;2.00;69.90;;;;;;4955809;28;20027;-62
2023/04/06 06:43:03;;;;;;;32.95;15.18;;;2.10;69.90;;;;;;4959180;28;20043;-62
2023/04/06 06:45:29;;;;;;;28.95;14.77;;;2.20;69.90;;;;;;4960813;28;20049;-63
2023/04/06 06:47:55;;;;;;;25.02;15.10;;;2.20;69.90;;;;;;4942698;28;20039;-64
2023/04/06 06:50:20;;;;;;;26.42;14.80;;;2.20;69.80;;;;;;4959739;28;20154;-63
2023/04/06 06:52:46;;;;;;;29.75;14.13;;;2.30;69.90;;;;;;4959384;28;20499;-64
2023/04/06 06:55:12;;;;;;;28.05;15.02;;;2.30;69.80;;;;;;4960077;28;20039;-63
2023/04/06 06:57:38;;;;;;;27.77;14.43;;;2.40;69.60;;;;;;4959278;28;20027;-64
2023/04/06 07:00:05;;;;;;;33.28;14.88;;;2.40;69.60;;;;;;4960578;28;20055;-64
2023/04/06 07:02:31;;;;;;;29.85;14.80;;;2.50;69.60;;;;;;4959774;28;20035;-64
2023/04/06 07:04:56;;;;;;;34.80;15.10;;;2.60;69.50;;;;;;4960166;28;20035;-64
2023/04/06 07:07:22;;;;;;;29.80;14.40;;;2.70;69.50;;;;;;4960208;28;20046;-63
2023/04/06 07:09:48;;;;;;;28.98;14.43;;;2.70;69.30;;;;;;4958652;28;20053;-64
2023/04/06 07:12:13;;;;;;;32.50;16.25;;;2.80;69.10;;;;;;4959150;28;20723;-63
2023/04/06 07:14:39;;;;;;;29.52;16.60;;;2.90;69.10;;;;;;4958679;28;20462;-63
2023/04/06 07:17:05;;;;;;;26.40;14.80;;;2.90;69.10;;;;;;4957787;28;20039;-62
2023/04/06 07:19:30;;;;;;;25.73;14.98;;;3.00;69.10;;;;;;4958566;28;20470;-63
2023/04/06 07:21:56;;;;;;;21.13;12.68;;;3.10;69.10;;;;;;4959946;28;20031;-63
2023/04/06 07:24:22;;;;;;;21.92;13.73;;;3.10;69.20;;;;;;4959165;28;20520;-63
2023/04/06 07:26:47;;;;;;;20.67;12.95;;;3.20;69.30;;;;;;4959473;28;20050;-63
2023/04/06 07:29:13;;;;;;;22.40;12.73;;;3.30;69.50;;;;;;4958333;28;20558;-62
2023/04/06 07:31:39;;;;;;;19.77;12.38;;;3.40;69.60;;;;;;4959649;28;20039;-63
2023/04/06 07:34:04;;;;;;;16.23;11.85;;;3.50;69.50;;;;;;4959150;28;20035;-63
2023/04/06 07:36:30;;;;;;;18.70;11.93;;;3.60;69.50;;;;;;4958507;28;20506;-63
2023/04/06 07:38:56;;;;;;;18.13;11.07;;;3.70;69.40;;;;;;4959900;28;20101;-63
2023/04/06 07:41:21;;;;;;;17.92;11.55;;;3.80;69.40;;;;;;4958918;28;20153;-63
2023/04/06 07:43:48;;;;;;;19.10;11.63;;;3.90;69.10;;;;;;4959146;28;20039;-63
2023/04/06 07:46:13;;;;;;;17.63;10.77;;;4.00;69.00;;;;;;4959590;28;20047;-63
2023/04/06 07:48:39;;;;;;;17.58;11.95;;;4.10;69.00;;;;;;4956778;28;20475;-64
2023/04/06 07:51:06;;;;;;;18.40;11.90;;;4.20;68.70;;;;;;4959876;28;20513;-63
2023/04/06 07:53:32;;;;;;;16.65;11.52;;;4.40;68.70;;;;;;4959574;28;20173;-64
2023/04/06 07:56:00;;;;;;;17.88;11.40;;;4.50;68.60;;;;;;4959211;28;20117;-64
2023/04/06 07:58:26;;;;;;;16.75;10.95;;;4.60;68.30;;;;;;4956401;28;20451;-64
2023/04/06 08:00:52;;;;;;;17.20;11.38;;;4.70;68.00;;;;;;4957319;28;20116;-64
2023/04/06 08:03:20;;;;;;;18.45;10.32;;;4.90;67.80;;;;;;4956234;28;20063;-63
2023/04/06 08:05:46;;;;;;;17.83;10.40;;;5.00;67.80;;;;;;4960533;28;20066;-62
2023/04/06 08:08:11;;;;;;;12.63;9.40;;;5.20;67.50;;;;;;4960451;28;20083;-63
2023/04/06 08:10:37;;;;;;;13.73;9.45;;;5.30;67.10;;;;;;4960652;28;20518;-63
2023/04/06 08:13:02;;;;;;;15.07;9.68;;;5.30;66.80;;;;;;4959750;28;20039;-62
2023/04/06 08:15:28;;;;;;;14.52;9.80;;;5.50;66.50;;;;;;4958103;28;20066;-64
2023/04/06 08:17:56;;;;;;;14.77;9.88;;;5.60;66.10;;;;;;4959007;28;20035;-63
2023/04/06 08:20:22;;;;;;;18.05;10.32;;;5.70;66.00;;;;;;4959769;28;20031;-63
2023/04/06 08:22:48;;;;;;;15.20;9.93;;;5.80;65.50;;;;;;4959248;28;20054;-63
2023/04/06 08:25:13;;;;;;;15.18;9.88;;;5.90;65.00;;;;;;4959452;28;20090;-64
2023/04/06 08:27:39;;;;;;;18.33;9.82;;;6.10;64.70;;;;;;4960079;28;20093;-62
2023/04/06 08:30:05;;;;;;;12.30;9.25;;;6.20;64.30;;;;;;4959667;28;20041;-64
2023/04/06 08:32:31;;;;;;;17.13;9.48;;;6.30;64.00;;;;;;4957487;28;20039;-64
2023/04/06 08:34:56;;;;;;;14.00;9.77;;;6.40;64.00;;;;;;4959345;28;20038;-64
2023/04/06 08:37:22;;;;;;;12.35;9.23;;;6.50;63.80;;;;;;4958631;28;20035;-64
2023/04/06 08:39:51;;;;;;;14.70;9.70;;;6.60;63.60;;;;;;4959408;28;20597;-63
2023/04/06 08:42:20;;;;;;;14.02;9.70;;;6.70;63.50;;;;;;4959057;28;20043;-61
2023/04/06 08:44:48;;;;;;;12.40;9.05;;;6.80;62.70;;;;;;4958378;28;20035;-64
2023/04/06 08:47:14;;;;;;;12.95;8.75;;;7.00;62.60;;;;;;4959134;28;20047;-63
2023/04/06 08:49:42;;;;;;;11.98;8.65;;;7.10;62.70;;;;;;4957531;28;20049;-63
2023/04/06 08:52:08;;;;;;;14.68;9.48;;;7.10;62.40;;;;;;4958733;28;20038;-62
2023/04/06 08:54:34;;;;;;;13.82;9.15;;;7.20;62.20;;;;;;4958169;28;20047;-64
2023/04/06 08:57:00;;;;;;;13.23;9.18;;;7.30;61.90;;;;;;4957822;28;20031;-63
2023/04/06 08:59:26;;;;;;;11.70;8.23;;;7.50;61.50;;;;;;4956772;28;20102;-63
2023/04/06 09:01:54;;;;;;;14.93;9.02;;;7.50;61.50;;;;;;4958641;28;20046;-63
2023/04/06 09:04:20;;;;;;;15.10;9.02;;;7.60;61.50;;;;;;4959690;28;20047;-63
2023/04/06 09:06:45;;;;;;;14.90;9.27;;;7.80;61.30;;;;;;4958656;28;20093;-63
2023/04/06 09:09:11;;;;;;;12.35;8.82;;;7.90;61.20;;;;;;4958334;28;20396;-64
2023/04/06 09:11:48;;;;;;;14.07;8.82;;;8.00;61.00;;;;;;4958056;28;20089;-62
2023/04/06 09:14:15;;;;;;;15.02;9.15;;;8.10;60.10;;;;;;4957814;28;20062;-63
2023/04/06 09:16:45;;;;;;;15.55;8.15;;;8.30;60.10;;;;;;4958082;28;20035;-64
2023/04/06 09:19:11;;;;;;;11.98;8.30;;;8.40;59.50;;;;;;4958273;28;20043;-64
2023/04/06 09:21:38;;;;;;;13.65;8.57;;;8.50;59.70;;;;;;4958614;28;20035;-62
2023/04/06 09:24:04;;;;;;;12.18;8.98;;;8.60;59.60;;;;;;4958794;28;20783;-62
2023/04/06 09:26:33;;;;;;;11.05;7.60;;;8.70;59.00;;;;;;4956127;28;20522;-64
2023/04/06 09:29:00;;;;;;;11.07;7.65;;;8.80;58.50;;;;;;4959385;28;20047;-63
2023/04/06 09:31:29;;;;;;;11.25;7.05;;;8.80;58.80;;;;;;4958070;28;20039;-64
2023/04/06 09:33:55;;;;;;;12.18;7.53;;;8.90;57.30;;;;;;4957517;28;20434;-63
2023/04/06 09:36:41;;;;;;;17.08;8.20;;;9.00;57.70;;;;;;4957120;28;20031;-63
2023/04/06 09:39:07;;;;;;;10.30;7.70;;;9.10;56.80;;;;;;4958196;28;20422;-63
2023/04/06 09:41:35;;;;;;;10.23;7.70;;;9.10;57.20;;;;;;4958451;28;20411;-64
2023/04/06 09:44:07;;;;;;;12.30;7.55;;;9.20;56.10;;;;;;4957354;28;20585;-62
2023/04/06 09:46:35;;;;;;;9.38;6.97;;;9.30;56.00;;;;;;4957887;28;20114;-63
2023/04/06 09:49:04;;;;;;;9.98;7.07;;;9.30;55.20;;;;;;4957896;28;20050;-64
2023/04/06 09:51:33;;;;;;;9.68;6.95;;;9.40;55.40;;;;;;4958615;28;20441;-64
2023/04/06 09:54:02;;;;;;;9.55;6.30;;;9.40;56.00;;;;;;4958269;28;20551;-64
2023/04/06 09:56:31;;;;;;;10.63;7.00;;;9.50;56.00;;;;;;4957479;28;20126;-65
2023/04/06 09:59:04;;;;;;;10.65;6.55;;;9.60;55.70;;;;;;4959401;28;20130;-64
2023/04/06 10:01:32;;;;;;;8.93;6.75;;;9.70;55.40;;;;;;4957408;28;20512;-62
2023/04/06 10:04:26;;;;;;;8.30;6.57;;;9.80;55.40;;;;;;4957194;28;20521;-64
2023/04/06 10:06:52;;;;;;;9.57;6.45;;;9.90;55.10;;;;;;4957147;28;20046;-62
2023/04/06 10:09:20;;;;;;;8.23;6.40;;;10.00;55.60;;;;;;4957578;28;20050;-64
2023/04/06 10:11:47;;;;;;;8.40;6.07;;;10.10;55.20;;;;;;4956963;28;20031;-64
2023/04/06 10:14:13;;;;;;;9.75;5.97;;;10.30;55.10;;;;;;4958014;28;20097;-65
2023/04/06 10:16:39;;;;;;;7.63;6.22;;;10.40;54.50;;;;;;4957291;28;20039;-64
2023/04/06 10:19:13;;;;;;;7.90;5.45;;;10.50;54.00;;;;;;4960612;28;20047;-64
2023/04/06 10:21:43;;;;;;;8.88;6.15;;;10.60;52.30;;;;;;4960539;28;20064;-63
2023/04/06 10:24:13;;;;;;;6.68;5.90;;;10.70;52.00;;;;;;4962223;28;20441;-63
2023/04/06 10:26:39;;;;;;;7.18;5.50;;;10.70;51.70;;;;;;4961767;28;20039;-62
2023/04/06 10:29:06;;;;;;;7.47;5.65;;;10.70;51.60;;;;;;4960242;28;20043;-63
2023/04/06 10:31:31;;;;;;;8.10;6.03;;;10.80;49.80;;;;;;4959666;28;20086;-64
2023/04/06 10:34:02;;;;;;;8.57;6.00;;;10.80;51.50;;;;;;4962288;28;20439;-62
2023/04/06 10:36:32;;;;;;;9.55;6.72;;;10.80;51.00;;;;;;4961387;28;20457;-62
2023/04/06 10:39:03;;;;;;;9.30;6.32;;;10.90;50.20;;;;;;4951675;28;20039;-61
2023/04/06 10:41:42;;;;;;;10.38;7.75;;;10.90;51.30;;;;;;4961482;28;20411;-60
2023/04/06 10:44:16;;;;;;;9.70;7.28;;;11.00;49.90;;;;;;4961286;28;20043;-62
2023/04/06 10:46:53;;;;;;;7.90;6.88;;;11.00;49.50;;;;;;4960743;28;20070;-62
2023/04/06 10:49:19;;;;;;;8.82;6.40;;;11.10;49.60;;;;;;4960829;28;20067;-63
2023/04/06 10:51:50;;;;;;;9.98;6.85;;;11.10;50.50;;;;;;4961573;28;20077;-62
2023/04/06 10:54:16;;;;;;;7.63;6.35;;;11.10;50.50;;;;;;4960816;28;20051;-61
2023/04/06 10:56:42;;;;;;;8.82;6.55;;;11.10;50.60;;;;;;4960946;28;20092;-61
2023/04/06 10:59:07;;;;;;;8.50;6.70;;;11.10;51.10;;;;;;4960934;28;20043;-62
2023/04/06 11:01:33;;;;;;;11.95;7.20;;;11.10;51.00;;;;;;4960662;28;20121;-62
2023/04/06 11:03:59;;;;;;;7.78;6.35;;;11.20;50.90;;;;;;4961673;28;20074;-61
2023/04/06 11:06:28;;;;;;;8.32;6.28;;;11.20;50.80;;;;;;4962802;28;20038;-63
2023/04/06 11:08:55;;;;;;;8.88;6.78;;;11.20;50.70;;;;;;4960645;28;20039;-63
2023/04/06 11:11:23;;;;;;;7.47;6.00;;;11.30;50.30;;;;;;4960346;28;20028;-63
2023/04/06 11:13:50;;;;;;;8.15;5.82;;;11.30;50.60;;;;;;4960687;28;20086;-63
2023/04/06 11:16:20;;;;;;;8.93;6.18;;;11.30;50.50;;;;;;4959273;28;20082;-62
2023/04/06 11:18:49;;;;;;;7.53;6.40;;;11.40;50.00;;;;;;4959223;28;20030;-63
2023/04/06 11:21:15;;;;;;;9.32;6.15;;;11.50;50.00;;;;;;4961079;28;20027;-63
2023/04/06 11:23:41;;;;;;;8.50;6.63;;;11.50;50.10;;;;;;4961216;28;20045;-63
2023/04/06 11:26:12;;;;;;;8.20;6.93;;;11.60;50.00;;;;;;4959735;28;20126;-62
2023/04/06 11:28:39;;;;;;;9.07;6.78;;;11.60;49.90;;;;;;4961862;28;20131;-63
2023/04/06 11:31:05;;;;;;;8.27;7.05;;;11.70;48.70;;;;;;4960008;28;20054;-63
2023/04/06 11:33:36;;;;;;;9.85;6.93;;;11.70;48.90;;;;;;4960615;28;20045;-62
2023/04/06 11:36:02;;;;;;;9.95;6.80;;;11.70;48.10;;;;;;4960777;28;20299;-60
2023/04/06 11:38:27;;;;;;;8.43;6.78;;;11.70;48.30;;;;;;4960187;28;20395;-64
2023/04/06 11:40:53;;;;;;;9.40;6.90;;;11.70;49.30;;;;;;4961536;28;20035;-62
2023/04/06 11:43:32;;;;;;;7.18;6.00;;;11.80;49.20;;;;;;4959529;28;20437;-63
2023/04/06 11:46:02;;;;;;;6.72;5.57;;;11.80;49.00;;;;;;4960702;28;20042;-62
2023/04/06 11:48:28;;;;;;;9.32;5.88;;;11.90;48.60;;;;;;4960480;28;20090;-63
2023/04/06 11:50:58;;;;;;;7.32;5.72;;;11.90;48.90;;;;;;4962723;28;20066;-63
2023/04/06 11:53:29;;;;;;;6.38;5.78;;;12.00;48.80;;;;;;4961225;28;20035;-64
2023/04/06 11:55:56;;;;;;;8.13;6.20;;;12.00;48.70;;;;;;4961670;28;20623;-63
2023/04/06 11:58:22;;;;;;;6.57;5.88;;;12.10;47.90;;;;;;4961292;28;20054;-62
2023/04/06 12:00:47;;;;;;;8.30;6.15;;;12.10;48.10;;;;;;4961897;28;20100;-62
2023/04/06 12:03:13;;;;;;;7.07;5.95;;;12.10;48.40;;;;;;4958547;28;20066;-63
2023/04/06 12:05:40;;;;;;;7.75;5.95;;;12.10;48.50;;;;;;4942524;28;20090;-63
2023/04/06 12:08:05;;;;;;;6.13;5.53;;;12.20;48.20;;;;;;4959993;28;20518;-63
2023/04/06 12:10:31;;;;;;;6.78;5.60;;;12.20;47.80;;;;;;4956857;28;20055;-63
2023/04/06 12:12:56;;;;;;;9.68;6.10;;;12.20;47.60;;;;;;4959066;28;20031;-63
2023/04/06 12:15:22;;;;;;;8.85;6.00;;;12.20;47.70;;;;;;4961495;28;20035;-61
2023/04/06 12:17:49;;;;;;;7.75;6.05;;;12.30;47.30;;;;;;4959169;28;20473;-63
2023/04/06 12:20:15;;;;;;;8.63;6.45;;;12.20;46.70;;;;;;4959728;28;20038;-63
2023/04/06 12:22:40;;;;;;;6.20;5.60;;;12.20;46.60;;;;;;4958076;28;20051;-63
2023/04/06 12:25:06;;;;;;;7.20;6.20;;;12.20;46.90;;;;;;4961051;28;20046;-62
2023/04/06 12:27:32;;;;;;;7.47;6.18;;;12.20;46.90;;;;;;4959611;28;20039;-63
2023/04/06 12:29:58;;;;;;;7.85;5.80;;;12.20;46.20;;;;;;4959172;28;20044;-62
2023/04/06 12:32:24;;;;;;;6.45;5.60;;;12.10;46.50;;;;;;4958483;28;20521;-62
2023/04/06 12:34:52;;;;;;;6.15;5.55;;;12.10;46.80;;;;;;4946299;28;20124;-63
2023/04/06 12:37:17;;;;;;;8.25;5.88;;;12.10;47.10;;;;;;4959360;28;20039;-62
2023/04/06 12:39:44;;;;;;;19.42;5.60;;;12.20;47.50;;;;;;4958805;28;20039;-64